createdAt,value
2022-11-02T00:00:14.989Z,33.92
2022-11-02T00:03:00.855Z,41.20
2022-11-02T00:05:46.701Z,44.45
2022-11-02T00:08:32.515Z,39.03
2022-11-02T00:11:18.025Z,39.75
2022-11-02T00:14:04.471Z,31.15
2022-11-02T00:16:50.236Z,42.85
2022-11-02T00:19:36.016Z,34.30
2022-11-02T00:22:22.586Z,35.33
2022-11-02T00:25:09.280Z,38.20
2022-11-02T00:27:55.224Z,35.05
2022-11-02T00:30:41.516Z,31.23
2022-11-02T00:33:27.635Z,29.73
2022-11-02T00:36:13.422Z,35.30
2022-11-02T00:38:59.012Z,29.20
2022-11-02T00:41:45.244Z,31.40
2022-11-02T00:44:31.171Z,31.65
2022-11-02T00:47:17.030Z,47.42
2022-11-02T00:50:03.082Z,30.55
2022-11-02T00:52:50.374Z,33.30
2022-11-02T00:55:37.672Z,27.55
2022-11-02T00:58:23.678Z,30.65
2022-11-02T01:01:10.060Z,30.48
2022-11-02T01:03:59.088Z,32.88
2022-11-02T01:06:45.942Z,30.60
2022-11-02T01:09:31.642Z,27.92
2022-11-02T01:12:17.267Z,29.38
2022-11-02T01:15:03.468Z,26.58
2022-11-02T01:17:49.343Z,32.70
2022-11-02T01:20:35.271Z,23.33
2022-11-02T01:23:21.095Z,31.27
2022-11-02T01:26:08.684Z,25.08
2022-11-02T01:28:55.019Z,33.50
2022-11-02T01:31:40.760Z,24.52
2022-11-02T01:34:26.367Z,30.58
2022-11-02T01:37:12.097Z,29.10
2022-11-02T01:39:57.831Z,31.90
2022-11-02T01:42:43.462Z,26.13
2022-11-02T01:45:29.208Z,32.70
2022-11-02T01:48:15.044Z,28.13
2022-11-02T01:51:03.784Z,25.58
2022-11-02T01:53:52.304Z,28.15
2022-11-02T01:56:40.156Z,28.13
2022-11-02T01:59:37.116Z,29.60
2022-11-02T02:02:24.846Z,26.73
2022-11-02T02:05:13.752Z,27.90
2022-11-02T02:08:03.138Z,29.30
2022-11-02T02:10:51.389Z,26.55
2022-11-02T02:13:36.745Z,26.05
2022-11-02T02:17:05.291Z,31.02
2022-11-02T02:20:18.456Z,26.08
2022-11-02T02:23:32.113Z,24.58
2022-11-02T02:26:55.236Z,28.17
2022-11-02T02:30:02.542Z,29.98
2022-11-02T02:32:57.722Z,26.92
2022-11-02T02:35:54.213Z,28.23
2022-11-02T02:38:45.600Z,28.88
2022-11-02T02:41:41.142Z,21.60
2022-11-02T02:44:33.099Z,27.25
2022-11-02T02:47:23.695Z,24.77
2022-11-02T02:50:19.816Z,26.60
2022-11-02T02:53:08.086Z,30.05
2022-11-02T02:55:57.819Z,25.70
2022-11-02T02:59:02.741Z,23.08
2022-11-02T03:01:49.205Z,20.30
2022-11-02T03:04:35.020Z,27.17
2022-11-02T03:07:29.653Z,25.38
2022-11-02T03:10:47.500Z,23.77
2022-11-02T03:13:48.837Z,25.65
2022-11-02T03:16:44.648Z,25.23
2022-11-02T03:20:04.710Z,32.72
2022-11-02T03:23:02.576Z,24.10
2022-11-02T03:25:59.777Z,22.67
2022-11-02T03:29:00.516Z,20.58
2022-11-02T03:31:56.709Z,32.13
2022-11-02T03:34:48.997Z,26.50
2022-11-02T03:38:03.713Z,23.85
2022-11-02T03:40:52.195Z,26.42
2022-11-02T03:43:40.968Z,24.13
2022-11-02T03:46:29.955Z,28.75
2022-11-02T03:49:19.819Z,23.15
2022-11-02T03:52:11.411Z,37.92
2022-11-02T03:55:09.331Z,34.47
2022-11-02T03:57:56.321Z,43.22
2022-11-02T04:00:51.575Z,38.85
2022-11-02T04:03:41.931Z,43.28
2022-11-02T04:06:27.935Z,38.80
2022-11-02T04:09:13.716Z,38.95
2022-11-02T04:12:18.706Z,36.40
2022-11-02T04:15:04.761Z,42.58
2022-11-02T04:18:09.089Z,36.47
2022-11-02T04:20:54.656Z,41.97
2022-11-02T04:23:59.024Z,41.40
2022-11-02T04:26:45.706Z,41.67
2022-11-02T04:29:31.410Z,35.75
2022-11-02T04:32:37.896Z,42.17
2022-11-02T04:35:26.748Z,28.95
2022-11-02T04:38:31.716Z,28.35
2022-11-02T04:41:49.160Z,23.63
2022-11-02T04:44:40.439Z,25.30
2022-11-02T04:47:36.161Z,26.17
2022-11-02T04:50:21.783Z,26.85
2022-11-02T04:53:08.148Z,25.95
2022-11-02T04:55:54.511Z,27.02
2022-11-02T04:58:40.290Z,22.90
2022-11-02T05:01:28.550Z,22.23
2022-11-02T05:04:14.647Z,21.90
2022-11-02T05:07:01.857Z,21.75
2022-11-02T05:09:52.440Z,23.35
2022-11-02T05:12:38.331Z,25.88
2022-11-02T05:15:23.813Z,26.90
2022-11-02T05:18:11.710Z,23.83
2022-11-02T05:21:02.334Z,23.50
2022-11-02T05:23:49.779Z,29.70
2022-11-02T05:26:36.406Z,31.08
2022-11-02T05:29:23.032Z,21.23
2022-11-02T05:32:09.920Z,22.80
2022-11-02T05:34:57.076Z,26.48
2022-11-02T05:37:43.137Z,28.52
2022-11-02T05:40:28.823Z,35.58
2022-11-02T05:43:16.611Z,23.30
2022-11-02T05:46:03.866Z,19.98
2022-11-02T05:48:49.485Z,25.52
2022-11-02T05:51:34.973Z,19.85
2022-11-02T05:54:21.243Z,24.95
2022-11-02T05:57:07.105Z,22.48
2022-11-02T05:59:52.870Z,24.20
2022-11-02T06:02:38.209Z,20.27
2022-11-02T06:05:25.669Z,22.15
2022-11-02T06:08:12.763Z,23.15
2022-11-02T06:10:58.790Z,24.67
2022-11-02T06:13:44.378Z,18.77
2022-11-02T06:16:31.042Z,23.15
2022-11-02T06:19:16.652Z,22.67
2022-11-02T06:22:03.582Z,22.02
2022-11-02T06:24:49.153Z,21.10
2022-11-02T06:27:35.112Z,22.80
2022-11-02T06:30:22.190Z,23.77
2022-11-02T06:33:07.757Z,24.35
2022-11-02T06:35:54.615Z,29.55
2022-11-02T06:38:42.230Z,25.42
2022-11-02T06:41:28.004Z,25.52
2022-11-02T06:44:13.679Z,32.05
2022-11-02T06:46:59.372Z,28.52
2022-11-02T06:49:44.988Z,28.10
2022-11-02T06:52:31.594Z,37.05
2022-11-02T06:55:18.888Z,26.65
2022-11-02T06:58:05.087Z,35.55
2022-11-02T07:00:56.538Z,35.45
2022-11-02T07:03:42.377Z,36.17
2022-11-02T07:06:28.356Z,36.85
2022-11-02T07:09:14.012Z,39.88
2022-11-02T07:11:59.868Z,42.60
2022-11-02T07:14:45.625Z,40.97
2022-11-02T07:17:32.422Z,50.67
2022-11-02T07:20:18.432Z,50.22
2022-11-02T07:23:05.593Z,38.33
2022-11-02T07:25:51.900Z,41.35
2022-11-02T07:28:38.504Z,52.95
2022-11-02T07:31:24.860Z,69.18
2022-11-02T07:34:16.549Z,79.53
2022-11-02T07:37:02.784Z,79.13
2022-11-02T07:39:49.479Z,107.07
2022-11-02T07:42:36.575Z,104.07
2022-11-02T07:45:25.384Z,93.95
2022-11-02T07:48:11.078Z,99.97
2022-11-02T07:51:00.168Z,113.25
2022-11-02T07:53:45.544Z,109.35
2022-11-02T07:56:31.030Z,110.18
2022-11-02T07:59:16.721Z,111.00
2022-11-02T08:02:03.023Z,115.05
2022-11-02T08:04:48.799Z,122.80
2022-11-02T08:07:34.534Z,116.88
2022-11-02T08:10:20.068Z,112.07
2022-11-02T08:13:06.038Z,117.65
2022-11-02T08:15:52.894Z,131.27
2022-11-02T08:18:38.713Z,127.28
2022-11-02T08:21:27.516Z,128.88
2022-11-02T08:24:13.740Z,106.97
2022-11-02T08:26:59.151Z,108.38
2022-11-02T08:29:45.545Z,127.40
2022-11-02T08:32:31.170Z,122.63
2022-11-02T08:35:17.340Z,131.27
2022-11-02T08:38:03.404Z,107.75
2022-11-02T08:40:49.737Z,109.30
2022-11-02T08:43:35.649Z,104.30
2022-11-02T08:46:21.480Z,104.95
2022-11-02T08:49:07.093Z,101.35
2022-11-02T08:51:52.668Z,110.72
2022-11-02T08:54:38.536Z,101.80
2022-11-02T08:57:24.318Z,100.75
2022-11-02T09:00:10.856Z,106.50
2022-11-02T09:03:04.966Z,102.72
2022-11-02T09:05:51.026Z,92.28
2022-11-02T09:08:36.596Z,91.45
2022-11-02T09:11:26.927Z,90.70
2022-11-02T09:14:12.337Z,88.10
2022-11-02T09:16:58.069Z,90.10
2022-11-02T09:19:43.780Z,84.07
2022-11-02T09:22:30.312Z,79.32
2022-11-02T09:25:17.285Z,76.85
2022-11-02T09:28:03.320Z,79.25
2022-11-02T09:30:49.283Z,87.40
2022-11-02T09:33:36.180Z,77.93
2022-11-02T09:36:21.724Z,73.20
2022-11-02T09:39:08.207Z,68.47
2022-11-02T09:42:20.151Z,67.47
2022-11-02T09:45:14.816Z,64.45
2022-11-02T09:48:17.069Z,63.65
2022-11-02T09:51:16.301Z,65.30
2022-11-02T09:54:23.828Z,60.95
2022-11-02T09:57:16.721Z,60.17
2022-11-02T10:00:02.656Z,58.25
2022-11-02T10:03:04.346Z,58.60
2022-11-02T10:06:11.716Z,59.58
2022-11-02T10:09:06.937Z,53.58
2022-11-02T10:12:10.041Z,54.28
2022-11-02T10:15:07.840Z,54.65
2022-11-02T10:17:58.425Z,54.47
2022-11-02T10:20:50.905Z,53.70
2022-11-02T10:23:47.571Z,53.17
2022-11-02T10:26:37.652Z,54.22
2022-11-02T10:29:45.425Z,50.72
2022-11-02T10:32:32.786Z,50.97
2022-11-02T10:35:33.990Z,50.30
2022-11-02T10:38:42.396Z,54.70
2022-11-02T10:41:30.999Z,53.15
2022-11-02T10:44:25.225Z,50.53
2022-11-02T10:47:27.545Z,55.80
2022-11-02T10:50:41.425Z,53.30
2022-11-02T10:53:40.558Z,43.78
2022-11-02T10:56:32.495Z,44.75
2022-11-02T10:59:20.425Z,43.85
2022-11-02T11:02:14.419Z,45.72
2022-11-02T11:05:14.257Z,47.13
2022-11-02T11:08:01.006Z,40.40
2022-11-02T11:10:47.014Z,45.30
2022-11-02T11:16:40.139Z,46.75
2022-11-02T11:19:39.343Z,42.83
2022-11-02T11:22:33.826Z,47.05
2022-11-02T11:25:28.173Z,52.13
2022-11-02T11:28:22.950Z,49.58
2022-11-02T11:31:18.875Z,56.67
2022-11-02T11:34:06.741Z,57.78
2022-11-02T11:36:52.847Z,62.17
2022-11-02T11:39:42.480Z,59.72
2022-11-02T11:42:32.341Z,62.25
2022-11-02T11:45:25.240Z,67.28
2022-11-02T11:48:29.167Z,73.35
2022-11-02T11:51:42.431Z,74.45
2022-11-02T11:54:33.005Z,82.55
2022-11-02T11:57:34.348Z,84.32
2022-11-02T12:00:28.901Z,82.05
2022-11-02T12:03:16.445Z,68.60
2022-11-02T12:06:15.763Z,79.95
2022-11-02T12:09:38.559Z,70.72
2022-11-02T12:12:42.743Z,73.20
2022-11-02T12:15:55.349Z,72.60
2022-11-02T12:22:02.452Z,61.13
2022-11-02T12:25:03.290Z,72.97
2022-11-02T12:28:13.394Z,66.80
2022-11-02T12:31:11.090Z,84.78
2022-11-02T12:34:05.700Z,78.25
2022-11-02T12:40:11.081Z,79.47
2022-11-02T12:43:38.347Z,81.20
2022-11-02T12:46:57.238Z,85.43
2022-11-02T12:49:54.482Z,93.20
2022-11-02T12:52:57.112Z,83.10
2022-11-02T12:55:47.030Z,85.90
2022-11-02T12:58:39.055Z,80.65
2022-11-02T13:01:28.043Z,79.93
2022-11-02T13:04:23.273Z,75.35
2022-11-02T13:07:15.256Z,86.47
2022-11-02T13:10:25.613Z,78.43
2022-11-02T13:13:27.115Z,81.47
2022-11-02T13:16:16.271Z,77.70
2022-11-02T13:19:03.996Z,77.45
2022-11-02T13:21:55.061Z,76.68
2022-11-02T13:24:47.821Z,83.68
2022-11-02T13:27:39.257Z,75.85
2022-11-02T13:30:25.711Z,68.85
2022-11-02T13:33:26.397Z,68.63
2022-11-02T13:36:13.283Z,68.13
2022-11-02T13:39:10.714Z,65.70
2022-11-02T13:42:17.498Z,70.10
2022-11-02T13:45:25.716Z,74.82
2022-11-02T13:48:36.331Z,68.70
2022-11-02T13:51:40.470Z,78.22
2022-11-02T13:54:31.209Z,69.72
2022-11-02T13:57:38.762Z,73.65
2022-11-02T14:00:30.785Z,69.78
2022-11-02T14:03:25.340Z,74.80
2022-11-02T14:06:14.017Z,62.55
2022-11-02T14:09:05.207Z,71.75
2022-11-02T14:11:51.866Z,64.88
2022-11-02T14:14:37.457Z,62.22
2022-11-02T14:17:23.150Z,69.82
2022-11-02T14:20:33.408Z,67.70
2022-11-02T14:23:25.450Z,70.95
2022-11-02T14:26:31.546Z,70.75
2022-11-02T14:29:41.929Z,82.38
2022-11-02T14:32:52.796Z,76.28
2022-11-02T14:35:49.648Z,79.35
2022-11-02T14:38:38.143Z,82.10
2022-11-02T14:41:42.015Z,82.55
2022-11-02T14:44:45.322Z,76.40
2022-11-02T14:47:34.567Z,66.97
2022-11-02T14:50:21.483Z,85.97
2022-11-02T14:53:18.007Z,74.28
2022-11-02T14:56:04.212Z,84.32
2022-11-02T14:58:56.674Z,76.28
2022-11-02T15:01:59.153Z,79.47
2022-11-02T15:04:55.588Z,75.25
2022-11-02T15:08:03.463Z,79.18
2022-11-02T15:10:49.212Z,67.03
2022-11-02T15:13:46.775Z,77.28
2022-11-02T15:16:41.209Z,62.88
2022-11-02T15:19:46.978Z,69.60
2022-11-02T15:22:32.823Z,62.95
2022-11-02T15:25:26.749Z,64.40
2022-11-02T15:28:19.509Z,66.75
2022-11-02T15:31:20.628Z,69.63
2022-11-02T15:34:17.582Z,67.10
2022-11-02T15:37:04.313Z,65.47
2022-11-02T15:39:54.489Z,62.80
2022-11-02T15:43:07.216Z,64.68
2022-11-02T15:46:13.830Z,60.93
2022-11-02T15:49:45.367Z,59.53
2022-11-02T15:53:21.560Z,57.45
2022-11-02T15:56:19.449Z,59.35
2022-11-02T15:59:41.329Z,63.88
2022-11-02T16:02:36.864Z,64.88
2022-11-02T16:05:24.746Z,63.95
2022-11-02T16:08:25.181Z,61.78
2022-11-02T16:11:29.218Z,64.22
2022-11-02T16:17:04.192Z,56.10
2022-11-02T16:19:50.640Z,57.97
2022-11-02T16:22:37.565Z,58.92
2022-11-02T16:25:26.117Z,67.40
2022-11-02T16:28:11.806Z,65.97
2022-11-02T16:31:01.985Z,65.78
2022-11-02T16:33:53.158Z,61.28
2022-11-02T16:36:39.158Z,62.92
2022-11-02T16:39:31.850Z,69.45
2022-11-02T16:42:22.775Z,63.00
2022-11-02T16:45:31.702Z,64.85
2022-11-02T16:48:23.413Z,64.30
2022-11-02T16:51:14.771Z,67.07
2022-11-02T16:54:31.427Z,61.20
2022-11-02T16:57:44.571Z,69.35
2022-11-02T17:00:30.023Z,81.18
2022-11-02T17:03:23.854Z,75.43
2022-11-02T17:06:09.586Z,72.40
2022-11-02T17:08:55.740Z,65.78
2022-11-02T17:11:43.132Z,69.53
2022-11-02T17:14:29.216Z,67.15
2022-11-02T17:17:39.960Z,72.82
2022-11-02T17:20:26.306Z,69.13
2022-11-02T17:23:32.455Z,73.60
2022-11-02T17:26:27.439Z,70.28
2022-11-02T17:29:25.169Z,67.25
2022-11-02T17:32:16.398Z,67.80
2022-11-02T17:35:04.895Z,68.63
2022-11-02T17:37:50.442Z,74.15
2022-11-02T17:40:37.211Z,73.85
2022-11-02T17:43:23.857Z,70.70
2022-11-02T17:46:09.926Z,72.53
2022-11-02T17:48:55.401Z,73.70
2022-11-02T17:51:42.691Z,77.53
2022-11-02T17:54:28.968Z,72.72
2022-11-02T17:57:15.294Z,75.30
2022-11-02T18:00:01.592Z,69.85
2022-11-02T18:02:58.753Z,74.57
2022-11-02T18:05:48.621Z,77.50
2022-11-02T18:08:56.532Z,71.10
2022-11-02T18:11:42.239Z,79.22
2022-11-02T18:14:27.835Z,80.57
2022-11-02T18:17:13.603Z,72.47
2022-11-02T18:19:59.487Z,95.18
2022-11-02T18:22:46.515Z,76.03
2022-11-02T18:25:33.438Z,82.68
2022-11-02T18:28:18.934Z,89.00
2022-11-02T18:31:09.004Z,87.00
2022-11-02T18:33:56.558Z,90.60
2022-11-02T18:36:43.138Z,91.10
2022-11-02T18:39:28.936Z,83.82
2022-11-02T18:42:14.353Z,81.75
2022-11-02T18:45:00.361Z,92.25
2022-11-02T18:47:46.310Z,96.57
2022-11-02T18:50:32.143Z,85.07
2022-11-02T18:53:17.844Z,92.57
2022-11-02T18:56:05.061Z,90.78
2022-11-02T18:58:52.871Z,94.50
2022-11-02T19:01:38.568Z,96.15
2022-11-02T19:04:24.756Z,100.65
2022-11-02T19:07:28.843Z,91.72
2022-11-02T19:10:14.406Z,94.18
2022-11-02T19:12:59.872Z,96.22
2022-11-02T19:15:45.501Z,97.40
2022-11-02T19:18:31.188Z,98.15
2022-11-02T19:21:17.165Z,93.43
2022-11-02T19:24:04.800Z,99.45
2022-11-02T19:26:50.782Z,91.18
2022-11-02T19:29:36.729Z,92.13
2022-11-02T19:32:22.235Z,95.32
2022-11-02T19:35:08.177Z,90.82
2022-11-02T19:37:57.684Z,83.90
2022-11-02T19:40:43.552Z,96.40
2022-11-02T19:43:29.968Z,95.30
2022-11-02T19:46:17.752Z,91.50
2022-11-02T19:49:03.195Z,90.15
2022-11-02T19:51:49.230Z,88.60
2022-11-02T19:54:35.177Z,87.15
2022-11-02T19:57:20.837Z,87.38
2022-11-02T20:00:07.412Z,80.75
2022-11-02T20:02:54.828Z,79.47
2022-11-02T20:05:40.445Z,85.88
2022-11-02T20:08:26.705Z,81.40
2022-11-02T20:11:15.287Z,82.93
2022-11-02T20:14:02.929Z,74.35
2022-11-02T20:16:58.759Z,91.90
2022-11-02T20:19:50.055Z,77.80
2022-11-02T20:22:36.209Z,80.88
2022-11-02T20:25:24.387Z,90.25
2022-11-02T20:28:10.458Z,89.55
2022-11-02T20:30:56.142Z,89.80
2022-11-02T20:33:42.907Z,83.43
2022-11-02T20:36:29.006Z,79.13
2022-11-02T20:39:14.903Z,83.35
2022-11-02T20:42:00.402Z,85.90
2022-11-02T20:44:49.225Z,80.10
2022-11-02T20:47:35.023Z,87.10
2022-11-02T20:50:24.885Z,88.63
2022-11-02T20:53:11.465Z,91.47
2022-11-02T20:55:59.767Z,84.03
2022-11-02T20:58:55.458Z,85.13
2022-11-02T21:01:41.931Z,87.57
2022-11-02T21:04:27.776Z,87.40
2022-11-02T21:07:13.308Z,86.90
2022-11-02T21:09:59.081Z,97.32
2022-11-02T21:13:03.511Z,83.90
2022-11-02T21:15:49.194Z,88.50
2022-11-02T21:18:35.275Z,90.68
2022-11-02T21:21:21.952Z,94.47
2022-11-02T21:24:09.876Z,93.53
2022-11-02T21:26:55.492Z,88.15
2022-11-02T21:29:41.356Z,93.50
2022-11-02T21:32:26.979Z,94.93
2022-11-02T21:35:13.015Z,103.18
2022-11-02T21:38:01.296Z,97.88
2022-11-02T21:40:49.815Z,91.78
2022-11-02T21:43:37.489Z,93.40
2022-11-02T21:46:28.304Z,100.47
2022-11-02T21:49:14.021Z,96.57
2022-11-02T21:51:59.509Z,93.32
2022-11-02T21:54:45.077Z,98.38
2022-11-02T21:57:30.820Z,98.15
2022-11-02T22:00:16.703Z,104.35
2022-11-02T22:03:02.739Z,92.05
2022-11-02T22:05:59.359Z,98.30
2022-11-02T22:08:45.207Z,100.60
2022-11-02T22:11:31.288Z,89.00
2022-11-02T22:14:16.857Z,89.60
2022-11-02T22:17:11.218Z,96.15
2022-11-02T22:20:04.149Z,103.20
2022-11-02T22:22:50.265Z,93.43
2022-11-02T22:25:35.731Z,92.25
2022-11-02T22:31:16.081Z,96.10
2022-11-02T22:34:03.428Z,98.82
2022-11-02T22:36:49.313Z,98.88
2022-11-02T22:39:34.787Z,94.88
2022-11-02T22:42:20.367Z,95.97
2022-11-02T22:45:06.491Z,101.55
2022-11-02T22:47:52.228Z,108.75
2022-11-02T22:50:37.960Z,113.75
2022-11-02T22:53:30.562Z,108.97
2022-11-02T22:56:18.143Z,91.13
2022-11-02T22:59:05.123Z,108.15
2022-11-02T23:01:51.503Z,107.43
2022-11-02T23:04:37.056Z,102.70
2022-11-02T23:07:22.897Z,98.53
2022-11-02T23:10:29.407Z,104.60
2022-11-02T23:13:15.283Z,98.55
2022-11-02T23:16:23.572Z,103.82
2022-11-02T23:19:27.202Z,101.68
2022-11-02T23:22:31.959Z,103.93
2022-11-02T23:25:19.077Z,102.03
2022-11-02T23:31:32.323Z,102.40
2022-11-02T23:34:17.713Z,105.63
2022-11-02T23:37:06.031Z,107.13
2022-11-02T23:39:51.761Z,107.88
2022-11-02T23:42:37.496Z,111.70
2022-11-02T23:45:23.129Z,105.15
2022-11-02T23:48:09.603Z,105.50
2022-11-02T23:51:16.124Z,119.32
2022-11-02T23:54:20.328Z,114.90
2022-11-02T23:57:06.746Z,109.50
2022-11-02T23:59:52.611Z,116.45
